Terminal Aerodrome Forecast
Issued by NWS

Home | Current Version | Previous Version | Text Only | Print | Product List | Glossary On
Versions: 1 2 3 4 5 6 7 8 9 10 11 12 13 14 15 16 17 18 19
000
FTUS45 KBOI 061138
TAFJER
TAF
KJER 061138Z 0612/0712 05014KT P6SM SCT100
     FM061600 05015KT P6SM VCSH SCT030 OVC050
     FM062000 33011KT 5SM -SHSN SCT010 OVC020
     FM070300 23008KT P6SM VCSH SCT020 OVC040
     FM070900 24014KT P6SM BKN010=

USA.gov is the U.S. government's official web portal to all federal, state and local government web resources and services.